• Join FlightAware (Why Join?)
  • Login
  • US Flag 
05:52PM EDT


 

Airport Tracker/Info


-or-


 

Live Flight TrackerFlight Track Log ✈ N376NG ✈ 01-May-2013 ✈ KFAR - KSTP

Flight Track Log - Related Links

Times and Time Zones

All times are in EDT time to prevent confusion due to time zone crossing. See the N376NG flight status page for this flight to view local times or setup timezone preferences in your user account.

Time Position Orientation Groundspeed Altitude Reporting Facility
EDT Latitude Longitude Course Direction KTS MPH feet Rate Location/Type
01:35PM 46.9561 -96.8106 133° Southeast 149 171 3,500  Level Minneapolis Center
01:36PM 46.9539 -96.7444 93° East 174 200 5,800 1,980 Climbing Minneapolis Center
01:37PM 46.9175 -96.6797 129° Southeast 201 231 7,700 1,980 Climbing Minneapolis Center
01:38PM 46.8772 -96.6183 134° Southeast 201 231 10,000 1,860 Climbing Minneapolis Center
01:40PM 46.8350 -96.5533 134° Southeast 209 241 12,000 1,980 Climbing Minneapolis Center
01:41PM 46.6855 -96.3440 133° Southeast  Level Estimated
01:41PM 46.7861 -96.4783 134° Southeast 212 244 14,500  Level Minneapolis Center
01:42PM 46.7444 -96.4142 133° Southeast 206 237 16,600 1,680 Climbing Minneapolis Center
01:43PM 46.7050 -96.3542 134° Southeast 198 228 18,000 1,140 Climbing Minneapolis Center
01:44PM 46.6744 -96.3069 133° Southeast 192 221 19,000 480 Climbing Minneapolis Center
01:45PM 46.6211 -96.2242 133° Southeast 234 269 19,000  Level Minneapolis Center
01:46PM 46.5708 -96.1481 134° Southeast 257 296 19,000  Level Minneapolis Center
01:47PM 46.5192 -96.0719 135° Southeast 264 304 19,000  Level Minneapolis Center
01:48PM 46.4692 -95.9944 133° Southeast 264 304 19,000  Level Minneapolis Center
01:49PM 46.4189 -95.9181 134° Southeast 263 303 19,000  Level Minneapolis Center
01:50PM 46.3556 -95.8228 134° Southeast 259 298 19,000  Level Minneapolis Center
01:51PM 46.3050 -95.7486 135° Southeast 260 299 19,000  Level Minneapolis Center
01:52PM 46.2564 -95.6742 133° Southeast 255 293 19,000  Level Minneapolis Center
01:53PM 46.2083 -95.6028 134° Southeast 249 287 19,000  Level Minneapolis Center
01:54PM 46.1517 -95.5189 134° Southeast 245 282 19,000  Level Minneapolis Center
01:55PM 46.1042 -95.4486 134° Southeast 245 282 19,000  Level Minneapolis Center
01:56PM 46.0572 -95.3800 135° Southeast 242 278 19,000  Level Minneapolis Center
01:57PM 46.0092 -95.3069 133° Southeast 249 287 19,000  Level Minneapolis Center
01:58PM 45.9644 -95.2244 128° Southeast 263 303 19,000  Level Minneapolis Center
01:59PM 45.9428 -95.1111 105° East 292 336 19,000  Level Minneapolis Center
02:00PM 45.9253 -94.9731 100° East 300 345 19,000  Level Minneapolis Center
02:01PM 45.9100 -94.8581 101° East 296 341 19,000  Level Minneapolis Center
02:02PM 45.8950 -94.7444 101° East 292 336 19,000  Level Minneapolis Center
02:03PM 45.8806 -94.6286 100° East 295 339 19,000  Level Minneapolis Center
02:04PM 45.8653 -94.5125 101° East 297 342 19,000  Level Minneapolis Center
02:05PM 45.8497 -94.3975 101° East 296 341 19,000 -60 Level Minneapolis Center
02:06PM 45.8342 -94.2822 101° East 296 341 18,900 -960 Descending Minneapolis Center
02:08PM 45.8144 -94.1372 101° East 305 351 17,100 -1,500 Descending Minneapolis Center
02:09PM 45.7983 -94.0178 101° East 309 356 15,500 -1,500 Descending Minneapolis Center
02:10PM 45.7811 -93.8942 101° East 280 322 13,800 -1,500 Descending Minneapolis Center
02:11PM 45.7675 -93.7919 101° East 264 304 12,400 -1,320 Descending Minneapolis Center
02:12PM 45.7319 -93.7072 121° Southeast 256 295 11,100 -1,320 Descending Minneapolis Center
02:13PM 45.6769 -93.6528 145° Southeast 245 282 9,800 -1,500 Descending Minneapolis Center
02:14PM 45.5967 -93.6158 162° South 254 292 8,100 -1,380 Descending Minneapolis Center
02:15PM 45.5311 -93.5789 158° South 254 292 7,000 -540 Descending Minneapolis Center
02:16PM 45.4708 -93.5469 160° South 233 268 7,000  Level Minneapolis Center
02:17PM 45.4008 -93.5075 158° South 227 261 7,000 -540 Level Minneapolis Center
02:18PM 45.3394 -93.4753 160° South 234 269 5,900 -1,200 Descending Minneapolis Center
02:19PM 45.2800 -93.4433 159° South 229 264 4,600 -960 Descending Minneapolis Center
02:20PM 45.2408 -93.3908 137° Southeast 211 243 4,000 -300 Descending Minneapolis Center
02:21PM 45.2269 -93.2994 102° East 196 226 4,000  Level Minneapolis Center
02:22PM 45.2158 -93.2258 102° East 193 222 4,000  Level Minneapolis Center
02:23PM 45.2033 -93.1522 104° East 193 222 4,000  Level Minneapolis Center
02:24PM 45.1911 -93.0783 103° East 192 221 4,000  Level Minneapolis Center
02:25PM 45.1747 -93.0078 108° East 191 220 4,000  Level Minneapolis Center
02:26PM 45.1322 -92.9608 142° Southeast 192 221 4,000  Level Minneapolis Center
02:27PM 45.0911 -92.9139 141° Southeast 190 219 4,000  Level Minneapolis Center
02:28PM 45.0503 -92.8669 141° Southeast 189 217 4,000  Level Minneapolis Center
02:30PM 44.9975 -92.8086 142° Southeast 200 230 4,000 -360 Level Minneapolis Center
02:31PM 44.9428 -92.7936 169° South 216 249 3,300 -540 Descending Minneapolis Center
02:32PM 44.8828 -92.7992 184° South 216 249 3,000 -420 Descending Minneapolis Center
02:33PM 44.8264 -92.8047 184° South 205 236 2,500 -300 Descending Minneapolis Center
02:34PM 44.7761 -92.8203 192° South 190 219 2,500  Level Minneapolis Center
02:35PM 44.7681 -92.8806 259° West 158 182 2,500  Level Minneapolis Center
02:36PM 44.8014 -92.9392 309° West 140 161 2,500  Level Minneapolis Center
02:37PM 44.8300 -92.9606 332° Northwest 117 135 2,500  Level Minneapolis Center
02:38PM 44.8539 -92.9847 324° Northwest 108 124 2,500 -300 Level Minneapolis Center
02:39PM 44.8750 -93.0056 325° Northwest 95 109 2,000 -480 Descending Minneapolis Center
02:40PM 44.8942 -93.0222 328° Northwest 83 96 1,600 -360 Descending Minneapolis Center
02:41PM 44.9097 -93.0369 326° Northwest 68 78 1,300 -300 Descending Minneapolis Center
02:42PM 44.9269 -93.0542 325° Northwest 67 77 1,000 -300 Descending Minneapolis Center